createdAt,value
2018-05-12T00:02:55.597Z,10.30
2018-05-12T00:05:58.967Z,9.27
2018-05-12T00:09:02.201Z,11.30
2018-05-12T00:12:05.499Z,12.47
2018-05-12T00:15:08.811Z,11.07
2018-05-12T00:18:12.126Z,12.43
2018-05-12T00:21:15.411Z,11.57
2018-05-12T00:24:18.700Z,11.83
2018-05-12T00:27:22.018Z,11.73
2018-05-12T00:30:25.243Z,10.77
2018-05-12T00:33:28.570Z,11.50
2018-05-12T00:36:31.843Z,12.03
2018-05-12T00:39:35.080Z,13.47
2018-05-12T00:42:42.198Z,12.53
2018-05-12T00:45:45.431Z,11.20
2018-05-12T00:48:48.720Z,13.10
2018-05-12T00:51:52.020Z,12.10
2018-05-12T00:54:55.245Z,12.37
2018-05-12T00:57:58.539Z,11.33
2018-05-12T01:01:01.758Z,12.90
2018-05-12T01:04:05.135Z,13.20
2018-05-12T01:07:08.417Z,12.93
2018-05-12T01:10:11.681Z,11.20
2018-05-12T01:13:15.020Z,12.40
2018-05-12T01:16:18.263Z,14.17
2018-05-12T01:19:21.549Z,12.43
2018-05-12T01:22:24.875Z,11.87
2018-05-12T01:25:28.154Z,12.83
2018-05-12T01:28:31.462Z,14.83
2018-05-12T01:31:34.698Z,13.30
2018-05-12T01:34:38.009Z,12.57
2018-05-12T01:37:41.329Z,12.57
2018-05-12T01:40:44.565Z,13.40
2018-05-12T01:43:47.863Z,12.97
2018-05-12T01:46:51.095Z,13.67
2018-05-12T01:49:54.375Z,14.07
2018-05-12T01:52:57.730Z,14.00
2018-05-12T01:56:00.980Z,17.60
2018-05-12T01:59:04.358Z,15.77
2018-05-12T02:02:07.616Z,17.27
2018-05-12T02:05:10.940Z,18.93
2018-05-12T02:08:14.229Z,16.33
2018-05-12T02:11:17.456Z,18.40
2018-05-12T02:14:20.799Z,15.63
2018-05-12T02:17:24.015Z,14.60
2018-05-12T02:20:27.320Z,16.37
2018-05-12T02:23:30.609Z,15.27
2018-05-12T02:26:33.854Z,15.97
2018-05-12T02:29:37.143Z,14.77
2018-05-12T02:32:40.420Z,15.57
2018-05-12T02:35:43.735Z,14.77
2018-05-12T02:38:47.043Z,15.90
2018-05-12T02:41:50.274Z,15.27
2018-05-12T02:44:53.563Z,15.73
2018-05-12T02:47:57.051Z,18.60
2018-05-12T02:51:00.327Z,15.77
2018-05-12T02:54:03.651Z,14.93
2018-05-12T02:57:06.946Z,14.10
2018-05-12T03:00:10.314Z,15.03
2018-05-12T03:03:13.572Z,14.53
2018-05-12T03:06:16.888Z,16.67
2018-05-12T03:09:20.169Z,15.73
2018-05-12T03:12:23.400Z,16.33
2018-05-12T03:15:26.694Z,17.00
2018-05-12T03:18:29.938Z,14.93
2018-05-12T03:21:33.232Z,16.97
2018-05-12T03:24:36.508Z,17.63
2018-05-12T03:27:39.731Z,16.27
2018-05-12T03:30:43.034Z,16.90
2018-05-12T03:33:46.286Z,15.67
2018-05-12T03:36:49.580Z,15.60
2018-05-12T03:39:52.873Z,16.03
2018-05-12T03:42:56.134Z,15.03
2018-05-12T03:45:59.404Z,16.67
2018-05-12T03:49:02.676Z,16.43
2018-05-12T03:52:06.022Z,17.47
2018-05-12T03:55:09.333Z,16.83
2018-05-12T03:58:12.661Z,17.93
2018-05-12T04:01:15.955Z,18.77
2018-05-12T04:04:30.795Z,18.20
2018-05-12T04:11:30.294Z,16.03
2018-05-12T04:14:33.509Z,15.10
2018-05-12T04:17:36.859Z,14.97
2018-05-12T04:20:40.087Z,15.03
2018-05-12T04:23:43.363Z,15.30
2018-05-12T04:26:46.643Z,17.23
2018-05-12T04:29:49.870Z,15.17
2018-05-12T04:32:53.161Z,15.63
2018-05-12T04:35:56.386Z,15.10
2018-05-12T04:38:59.685Z,15.03
2018-05-12T04:42:02.976Z,15.57
2018-05-12T04:45:06.258Z,15.40
2018-05-12T04:48:09.583Z,16.67
2018-05-12T04:51:12.842Z,15.53
2018-05-12T04:54:16.226Z,17.40
2018-05-12T04:57:19.521Z,15.77
2018-05-12T05:00:22.745Z,17.00
2018-05-12T05:03:26.017Z,18.43
2018-05-12T05:06:29.235Z,18.30
2018-05-12T05:09:32.540Z,17.33
2018-05-12T05:12:35.830Z,16.90
2018-05-12T05:15:39.094Z,18.63
2018-05-12T05:18:42.381Z,19.30
2018-05-12T05:21:45.592Z,20.47
2018-05-12T05:24:48.877Z,18.10
2018-05-12T05:27:52.211Z,20.70
2018-05-12T05:30:55.425Z,21.00
2018-05-12T05:33:58.718Z,19.37
2018-05-12T05:37:01.955Z,20.97
2018-05-12T05:40:05.267Z,20.47
2018-05-12T05:43:08.551Z,19.50
2018-05-12T05:46:11.765Z,21.30
2018-05-12T05:49:15.045Z,22.40
2018-05-12T05:52:18.266Z,21.80
2018-05-12T05:55:21.552Z,22.13
2018-05-12T05:58:25.019Z,22.33
2018-05-12T06:01:28.242Z,22.47
2018-05-12T06:04:31.632Z,20.97
2018-05-12T06:07:34.857Z,23.20
2018-05-12T06:10:38.171Z,23.67
2018-05-12T06:13:41.465Z,22.87
2018-05-12T06:16:44.683Z,28.43
2018-05-12T06:19:47.985Z,25.10
2018-05-12T06:22:51.199Z,22.60
2018-05-12T06:25:54.475Z,27.60
2018-05-12T06:28:57.747Z,27.60
2018-05-12T06:32:00.966Z,24.60
2018-05-12T06:35:04.272Z,25.17
2018-05-12T06:38:07.495Z,23.57
2018-05-12T06:41:10.780Z,24.77
2018-05-12T06:44:14.087Z,24.80
2018-05-12T06:47:17.381Z,24.80
2018-05-12T06:50:20.713Z,24.57
2018-05-12T06:53:23.941Z,27.43
2018-05-12T06:56:27.265Z,27.47
2018-05-12T06:59:31.836Z,29.07
2018-05-12T07:02:35.218Z,27.77
2018-05-12T07:05:38.498Z,30.93
2018-05-12T07:08:42.070Z,30.43
2018-05-12T07:15:09.499Z,30.63
2018-05-12T07:18:12.718Z,31.47
2018-05-12T07:24:40.624Z,32.80
2018-05-12T07:27:43.905Z,31.87
2018-05-12T07:30:47.198Z,34.37
2018-05-12T07:33:59.105Z,33.17
2018-05-12T07:37:11.298Z,33.87
2018-05-12T07:40:26.702Z,31.90
2018-05-12T07:43:39.151Z,32.83
2018-05-12T07:46:42.388Z,33.97
2018-05-12T07:49:50.725Z,32.90
2018-05-12T07:52:54.328Z,31.63
2018-05-12T07:55:57.552Z,33.43
2018-05-12T07:59:00.836Z,31.53
2018-05-12T08:02:04.077Z,32.17
2018-05-12T08:05:07.357Z,31.70
2018-05-12T08:08:10.573Z,30.30
2018-05-12T08:11:19.402Z,31.10
2018-05-12T08:14:23.310Z,29.93
2018-05-12T08:17:26.516Z,26.13
2018-05-12T08:20:33.091Z,25.83
2018-05-12T08:23:37.049Z,26.00
2018-05-12T08:26:40.385Z,26.00
2018-05-12T08:29:43.855Z,26.87
2018-05-12T08:32:47.397Z,26.93
2018-05-12T08:35:50.714Z,26.53
2018-05-12T08:38:55.322Z,24.57
2018-05-12T08:41:58.616Z,22.53
2018-05-12T08:45:01.910Z,21.10
2018-05-12T08:48:05.154Z,18.77
2018-05-12T08:51:08.435Z,18.93
2018-05-12T08:54:11.640Z,17.53
2018-05-12T08:57:15.132Z,17.97
2018-05-12T09:00:18.361Z,17.40
2018-05-12T09:03:21.640Z,18.97
2018-05-12T09:06:24.924Z,18.43
2018-05-12T09:09:45.361Z,19.17
2018-05-12T09:12:52.844Z,19.03
2018-05-12T09:15:56.739Z,18.97
2018-05-12T09:19:14.609Z,17.00
2018-05-12T09:22:20.088Z,12.93
2018-05-12T09:25:29.709Z,10.53
2018-05-12T09:28:33.057Z,11.63
2018-05-12T09:31:38.220Z,10.37
2018-05-12T09:34:49.179Z,10.93
2018-05-12T09:37:52.468Z,12.27
2018-05-12T09:40:58.664Z,12.47
2018-05-12T09:44:01.984Z,12.13
2018-05-12T09:47:05.352Z,10.43
2018-05-12T10:34:33.060Z,7.67
2018-05-12T10:37:36.376Z,6.27
2018-05-12T10:40:39.653Z,7.27
2018-05-12T10:47:15.195Z,7.13
2018-05-12T10:50:30.719Z,7.20
2018-05-12T10:53:34.926Z,7.10
2018-05-12T10:56:46.942Z,6.80
2018-05-12T10:59:50.298Z,7.40
2018-05-12T11:03:07.806Z,7.43
2018-05-12T11:06:24.317Z,7.43
2018-05-12T11:09:31.472Z,7.77
2018-05-12T11:12:50.307Z,7.57
2018-05-12T11:15:54.676Z,7.85
2018-05-12T11:18:57.968Z,8.25
2018-05-12T11:22:01.239Z,7.93
2018-05-12T11:25:04.604Z,8.55
2018-05-12T11:28:07.893Z,8.35
2018-05-12T11:31:11.181Z,8.90
2018-05-12T11:34:14.445Z,8.23
2018-05-12T11:37:17.663Z,8.27
2018-05-12T11:40:20.967Z,8.18
2018-05-12T11:43:24.233Z,7.53
2018-05-12T11:46:27.518Z,7.65
2018-05-12T11:49:30.877Z,8.10
2018-05-12T11:52:34.090Z,7.55
2018-05-12T11:55:54.015Z,7.57
2018-05-12T11:58:59.835Z,7.10
2018-05-12T12:02:05.014Z,7.23
2018-05-12T12:05:09.782Z,7.00
2018-05-12T12:08:15.505Z,7.57
2018-05-12T12:11:36.779Z,7.07
2018-05-12T12:14:44.354Z,7.72
2018-05-12T12:17:59.496Z,7.43
2018-05-12T12:21:02.902Z,7.20
2018-05-12T12:24:06.242Z,7.10
2018-05-12T12:27:09.518Z,7.12
2018-05-12T12:30:12.834Z,7.10
2018-05-12T12:33:16.071Z,6.28
2018-05-12T12:36:19.452Z,6.62
2018-05-12T12:39:22.715Z,5.82
2018-05-12T12:42:26.089Z,6.30
2018-05-12T12:45:29.413Z,6.22
2018-05-12T12:48:34.407Z,6.55
2018-05-12T12:51:37.913Z,6.40
2018-05-12T12:54:42.655Z,5.85
2018-05-12T12:57:48.695Z,5.85
2018-05-12T13:00:56.370Z,5.60
2018-05-12T13:04:00.256Z,5.70
2018-05-12T13:07:03.778Z,5.53
2018-05-12T13:10:29.461Z,5.78
2018-05-12T13:13:58.857Z,5.60
2018-05-12T13:17:05.561Z,4.95
2018-05-12T13:27:15.641Z,5.47
2018-05-12T13:30:18.854Z,5.18
2018-05-12T13:33:22.162Z,5.12
2018-05-12T13:36:25.447Z,6.20
2018-05-12T13:39:28.656Z,4.97
2018-05-12T13:42:31.945Z,4.70
2018-05-12T13:45:35.213Z,4.90
2018-05-12T13:48:39.451Z,5.25
2018-05-12T13:51:43.059Z,5.28
2018-05-12T13:54:46.316Z,4.93
2018-05-12T13:57:49.636Z,4.22
2018-05-12T14:00:52.993Z,5.03
2018-05-12T14:04:12.128Z,4.80
2018-05-12T14:11:00.852Z,4.47
2018-05-12T14:14:32.381Z,4.45
2018-05-12T14:17:39.584Z,4.12
2018-05-12T14:20:42.815Z,4.30
2018-05-12T14:23:46.123Z,4.05
2018-05-12T14:26:49.394Z,4.35
2018-05-12T14:29:52.629Z,3.90
2018-05-12T14:32:55.999Z,4.30
2018-05-12T14:35:59.390Z,3.87
2018-05-12T14:39:02.652Z,4.32
2018-05-12T14:42:05.955Z,4.00
2018-05-12T14:45:09.230Z,4.10
2018-05-12T14:48:12.545Z,3.70
2018-05-12T14:51:15.773Z,3.45
2018-05-12T14:54:19.062Z,3.72
2018-05-12T14:57:23.072Z,3.55
2018-05-12T15:00:26.307Z,4.10
2018-05-12T15:03:29.579Z,4.43
2018-05-12T15:06:32.808Z,4.50
2018-05-12T15:09:36.069Z,6.75
2018-05-12T15:12:39.381Z,4.60
2018-05-12T15:15:45.443Z,4.00
2018-05-12T15:18:48.802Z,4.05
2018-05-12T15:21:52.071Z,3.83
2018-05-12T15:24:55.359Z,4.18
2018-05-12T15:27:58.649Z,3.83
2018-05-12T15:31:01.872Z,4.03
2018-05-12T15:34:05.184Z,3.40
2018-05-12T15:37:08.420Z,3.60
2018-05-12T15:40:11.791Z,3.70
2018-05-12T15:43:15.091Z,4.20
2018-05-12T15:46:18.340Z,3.45
2018-05-12T15:49:21.620Z,3.58
2018-05-12T15:52:24.821Z,3.45
2018-05-12T15:55:28.102Z,3.30
2018-05-12T15:58:31.417Z,3.55
2018-05-12T16:01:34.671Z,3.40
2018-05-12T16:04:37.987Z,3.70
2018-05-12T16:07:41.210Z,3.83
2018-05-12T16:10:44.579Z,3.70
2018-05-12T16:13:47.853Z,3.67
2018-05-12T16:16:51.108Z,3.97
2018-05-12T16:19:54.377Z,4.75
2018-05-12T16:22:57.592Z,5.82
2018-05-12T16:26:00.878Z,4.45
2018-05-12T16:29:04.165Z,6.43
2018-05-12T16:32:07.369Z,6.35
2018-05-12T16:35:10.693Z,5.60
2018-05-12T16:38:13.894Z,3.22
2018-05-12T16:41:17.187Z,3.40
2018-05-12T16:44:20.459Z,3.60
2018-05-12T16:47:23.669Z,3.65
2018-05-12T16:50:27.015Z,3.50
2018-05-12T16:53:30.358Z,3.65
2018-05-12T16:56:33.744Z,3.55
2018-05-12T16:59:38.950Z,4.22
2018-05-12T17:02:42.252Z,3.95
2018-05-12T17:05:45.554Z,4.03
2018-05-12T17:08:48.795Z,4.68
2018-05-12T17:11:52.128Z,22.62
2018-05-12T17:14:55.444Z,5.85
2018-05-12T17:17:58.724Z,3.37
2018-05-12T17:21:02.093Z,3.65
2018-05-12T17:24:05.342Z,3.87
2018-05-12T17:27:08.680Z,3.92
2018-05-12T17:30:11.987Z,3.85
2018-05-12T17:33:15.236Z,3.40
2018-05-12T17:36:18.551Z,3.97
2018-05-12T17:39:21.797Z,3.85
2018-05-12T17:42:25.126Z,16.05
2018-05-12T17:45:28.471Z,16.33
2018-05-12T17:48:31.758Z,3.95
2018-05-12T17:51:46.080Z,3.80
2018-05-12T17:54:50.540Z,4.07
2018-05-12T17:57:53.859Z,4.00
2018-05-12T18:01:15.226Z,10.77
2018-05-12T18:04:18.666Z,7.05
2018-05-12T18:07:22.008Z,7.43
2018-05-12T18:10:25.271Z,6.60
2018-05-12T18:13:28.610Z,9.70
2018-05-12T18:16:31.954Z,7.78
2018-05-12T18:19:55.508Z,8.48
2018-05-12T18:23:15.416Z,6.90
2018-05-12T18:29:42.294Z,7.50
2018-05-12T18:32:45.650Z,9.43
2018-05-12T18:36:05.356Z,7.57
2018-05-12T18:39:09.788Z,6.33
2018-05-12T18:42:13.126Z,5.43
2018-05-12T18:45:16.408Z,5.60
2018-05-12T18:48:19.727Z,5.03
2018-05-12T18:51:39.972Z,5.13
2018-05-12T18:54:52.436Z,5.60
2018-05-12T18:57:55.800Z,6.47
2018-05-12T19:00:59.074Z,7.70
2018-05-12T19:04:02.373Z,8.23
2018-05-12T19:07:05.724Z,8.20
2018-05-12T19:10:08.978Z,7.60
2018-05-12T19:13:12.439Z,8.80
2018-05-12T19:16:15.746Z,9.97
2018-05-12T19:19:19.048Z,8.10
2018-05-12T19:22:22.440Z,11.83
2018-05-12T19:25:25.702Z,10.77
2018-05-12T19:28:29.040Z,10.27
2018-05-12T19:31:34.250Z,9.60
2018-05-12T19:34:38.864Z,8.13
2018-05-12T19:37:42.971Z,8.93
2018-05-12T19:40:46.224Z,8.73
2018-05-12T19:43:49.684Z,9.80
2018-05-12T19:46:53.361Z,10.40
2018-05-12T19:49:56.705Z,10.93
2018-05-12T19:53:00.044Z,11.27
2018-05-12T19:56:03.319Z,12.53
2018-05-12T19:59:06.639Z,12.90
2018-05-12T20:02:09.906Z,12.23
2018-05-12T20:05:13.244Z,12.73
2018-05-12T20:08:16.825Z,12.43
2018-05-12T20:11:20.083Z,13.50
2018-05-12T20:14:37.585Z,15.07
2018-05-12T20:17:48.529Z,15.73
2018-05-12T20:20:51.894Z,17.20
2018-05-12T20:23:55.204Z,16.50
2018-05-12T20:26:58.517Z,17.63
2018-05-12T20:30:01.840Z,16.07
2018-05-12T20:33:05.112Z,13.13
2018-05-12T20:36:08.436Z,12.10
2018-05-12T20:39:11.862Z,14.03
2018-05-12T20:42:17.892Z,13.50
2018-05-12T20:49:09.488Z,16.37
2018-05-12T20:52:13.572Z,15.10
2018-05-12T20:55:17.263Z,15.07
2018-05-12T20:58:21.555Z,14.37
2018-05-12T21:01:24.857Z,15.10
2018-05-12T21:04:28.185Z,15.33
2018-05-12T21:07:31.444Z,15.07
2018-05-12T21:10:34.790Z,14.60
2018-05-12T21:13:38.045Z,16.10
2018-05-12T21:16:41.391Z,14.67
2018-05-12T21:19:44.747Z,18.03
2018-05-12T21:22:47.995Z,17.53
2018-05-12T21:25:51.365Z,17.43
2018-05-12T21:28:54.662Z,17.23
2018-05-12T21:31:57.995Z,14.57
2018-05-12T21:35:02.491Z,15.13
2018-05-12T21:38:05.815Z,15.67
2018-05-12T21:41:09.145Z,14.73
2018-05-12T21:44:12.416Z,15.93
2018-05-12T21:47:15.735Z,17.67
2018-05-12T21:50:19.087Z,18.33
2018-05-12T21:53:22.336Z,17.60
2018-05-12T21:56:25.688Z,16.83
2018-05-12T21:59:30.257Z,16.20
2018-05-12T22:02:33.569Z,17.70
2018-05-12T22:05:36.902Z,17.43
2018-05-12T22:08:40.192Z,18.53
2018-05-12T22:11:43.508Z,17.70
2018-05-12T22:14:46.774Z,18.43
2018-05-12T22:17:50.098Z,19.73
2018-05-12T22:20:53.424Z,20.03
2018-05-12T22:23:56.898Z,21.67
2018-05-12T22:27:00.214Z,20.63
2018-05-12T22:30:03.459Z,17.30
2018-05-12T22:33:06.792Z,19.20
2018-05-12T22:36:10.109Z,19.07
2018-05-12T22:39:13.353Z,24.23
2018-05-12T22:42:16.660Z,21.87
2018-05-12T22:45:19.909Z,18.70
2018-05-12T22:48:23.212Z,21.07
2018-05-12T22:51:26.540Z,21.90
2018-05-12T22:54:30.741Z,23.73
2018-05-12T22:57:34.051Z,22.50
2018-05-12T23:00:37.287Z,26.27
2018-05-12T23:03:40.625Z,23.03
2018-05-12T23:06:43.945Z,23.70
2018-05-12T23:09:47.203Z,24.03
2018-05-12T23:12:50.526Z,21.83
2018-05-12T23:15:53.773Z,23.63
2018-05-12T23:18:57.132Z,23.60
2018-05-12T23:22:00.429Z,22.67
2018-05-12T23:25:03.739Z,22.70
2018-05-12T23:28:07.083Z,23.23
2018-05-12T23:31:10.408Z,22.73
2018-05-12T23:34:13.720Z,21.10
2018-05-12T23:37:17.035Z,20.73
2018-05-12T23:40:20.311Z,21.47
2018-05-12T23:43:23.671Z,21.93
2018-05-12T23:46:26.907Z,21.80
2018-05-12T23:49:30.227Z,23.10
2018-05-12T23:52:33.565Z,22.27
2018-05-12T23:55:37.172Z,21.40
2018-05-12T23:58:40.536Z,24.47
